sensor_id;sensor_type;location;lat;lon;timestamp;P1;durP1;ratioP1;P2;durP2;ratioP2
42168;SDS011;27838;43.858;25.974;2022-12-29T00:00:04;21.45;;;12.63;;
42168;SDS011;27838;43.858;25.974;2022-12-29T00:02:32;23.23;;;13.27;;
42168;SDS011;27838;43.858;25.974;2022-12-29T00:04:58;23.73;;;13.75;;
42168;SDS011;27838;43.858;25.974;2022-12-29T00:07:25;21.65;;;13.07;;
42168;SDS011;27838;43.858;25.974;2022-12-29T00:09:51;22.88;;;13.05;;
42168;SDS011;27838;43.858;25.974;2022-12-29T00:12:18;23.48;;;13.07;;
42168;SDS011;27838;43.858;25.974;2022-12-29T00:14:44;25.90;;;13.25;;
42168;SDS011;27838;43.858;25.974;2022-12-29T00:17:29;25.35;;;13.88;;
42168;SDS011;27838;43.858;25.974;2022-12-29T00:19:55;23.25;;;13.98;;
42168;SDS011;27838;43.858;25.974;2022-12-29T00:22:39;25.02;;;13.68;;
42168;SDS011;27838;43.858;25.974;2022-12-29T00:25:23;26.08;;;13.75;;
42168;SDS011;27838;43.858;25.974;2022-12-29T00:28:08;23.50;;;13.60;;
42168;SDS011;27838;43.858;25.974;2022-12-29T00:30:58;23.13;;;13.13;;
42168;SDS011;27838;43.858;25.974;2022-12-29T00:33:42;23.92;;;13.07;;
42168;SDS011;27838;43.858;25.974;2022-12-29T00:39:02;22.50;;;13.13;;
42168;SDS011;27838;43.858;25.974;2022-12-29T00:41:50;24.63;;;12.87;;
42168;SDS011;27838;43.858;25.974;2022-12-29T00:44:34;23.27;;;12.45;;
42168;SDS011;27838;43.858;25.974;2022-12-29T00:47:00;24.98;;;13.20;;
42168;SDS011;27838;43.858;25.974;2022-12-29T00:49:29;25.20;;;12.90;;
42168;SDS011;27838;43.858;25.974;2022-12-29T00:51:55;21.55;;;13.32;;
42168;SDS011;27838;43.858;25.974;2022-12-29T00:54:28;21.88;;;13.63;;
42168;SDS011;27838;43.858;25.974;2022-12-29T00:56:56;24.52;;;13.85;;
42168;SDS011;27838;43.858;25.974;2022-12-29T00:59:23;24.52;;;13.23;;
42168;SDS011;27838;43.858;25.974;2022-12-29T01:01:50;26.23;;;12.95;;
42168;SDS011;27838;43.858;25.974;2022-12-29T01:04:18;20.45;;;12.13;;
42168;SDS011;27838;43.858;25.974;2022-12-29T01:06:50;23.90;;;12.50;;
42168;SDS011;27838;43.858;25.974;2022-12-29T01:09:17;22.05;;;12.55;;
42168;SDS011;27838;43.858;25.974;2022-12-29T01:12:02;21.02;;;11.95;;
42168;SDS011;27838;43.858;25.974;2022-12-29T01:14:30;23.05;;;13.20;;
42168;SDS011;27838;43.858;25.974;2022-12-29T01:16:56;28.27;;;13.93;;
42168;SDS011;27838;43.858;25.974;2022-12-29T01:19:23;20.42;;;11.73;;
42168;SDS011;27838;43.858;25.974;2022-12-29T01:21:51;28.30;;;13.95;;
42168;SDS011;27838;43.858;25.974;2022-12-29T01:24:18;25.90;;;13.15;;
42168;SDS011;27838;43.858;25.974;2022-12-29T01:26:45;23.90;;;13.98;;
42168;SDS011;27838;43.858;25.974;2022-12-29T01:29:13;24.33;;;13.70;;
42168;SDS011;27838;43.858;25.974;2022-12-29T01:31:40;21.88;;;12.43;;
42168;SDS011;27838;43.858;25.974;2022-12-29T01:34:06;23.98;;;12.88;;
42168;SDS011;27838;43.858;25.974;2022-12-29T01:36:33;22.33;;;13.38;;
42168;SDS011;27838;43.858;25.974;2022-12-29T01:39:00;23.88;;;12.90;;
42168;SDS011;27838;43.858;25.974;2022-12-29T01:41:27;34.05;;;15.05;;
42168;SDS011;27838;43.858;25.974;2022-12-29T01:43:54;26.30;;;13.80;;
42168;SDS011;27838;43.858;25.974;2022-12-29T01:46:37;20.60;;;12.25;;
42168;SDS011;27838;43.858;25.974;2022-12-29T01:49:17;25.75;;;14.27;;
42168;SDS011;27838;43.858;25.974;2022-12-29T01:51:55;26.08;;;14.18;;
42168;SDS011;27838;43.858;25.974;2022-12-29T01:57:07;23.58;;;12.30;;
42168;SDS011;27838;43.858;25.974;2022-12-29T01:59:37;26.48;;;15.02;;
42168;SDS011;27838;43.858;25.974;2022-12-29T02:02:09;22.27;;;13.80;;
42168;SDS011;27838;43.858;25.974;2022-12-29T02:04:36;25.80;;;13.95;;
42168;SDS011;27838;43.858;25.974;2022-12-29T02:07:09;24.38;;;13.63;;
42168;SDS011;27838;43.858;25.974;2022-12-29T02:09:43;17.65;;;13.38;;
42168;SDS011;27838;43.858;25.974;2022-12-29T02:12:12;21.75;;;13.75;;
42168;SDS011;27838;43.858;25.974;2022-12-29T02:14:40;38.80;;;15.27;;
42168;SDS011;27838;43.858;25.974;2022-12-29T02:17:08;70.07;;;17.23;;
42168;SDS011;27838;43.858;25.974;2022-12-29T02:22:18;26.33;;;14.52;;
42168;SDS011;27838;43.858;25.974;2022-12-29T02:27:40;29.67;;;14.35;;
42168;SDS011;27838;43.858;25.974;2022-12-29T02:32:52;25.85;;;13.73;;
42168;SDS011;27838;43.858;25.974;2022-12-29T02:47:41;29.98;;;14.55;;
42168;SDS011;27838;43.858;25.974;2022-12-29T02:50:16;29.67;;;15.27;;
42168;SDS011;27838;43.858;25.974;2022-12-29T02:52:51;25.75;;;12.70;;
42168;SDS011;27838;43.858;25.974;2022-12-29T02:55:26;23.75;;;13.50;;
42168;SDS011;27838;43.858;25.974;2022-12-29T03:01:27;25.75;;;14.15;;
42168;SDS011;27838;43.858;25.974;2022-12-29T03:03:45;24.40;;;12.60;;
42168;SDS011;27838;43.858;25.974;2022-12-29T03:09:14;24.38;;;12.27;;
42168;SDS011;27838;43.858;25.974;2022-12-29T03:14:52;28.35;;;13.70;;
42168;SDS011;27838;43.858;25.974;2022-12-29T03:17:56;22.63;;;12.88;;
42168;SDS011;27838;43.858;25.974;2022-12-29T03:20:32;27.75;;;13.55;;
42168;SDS011;27838;43.858;25.974;2022-12-29T03:23:15;25.13;;;13.95;;
42168;SDS011;27838;43.858;25.974;2022-12-29T03:25:44;25.35;;;12.55;;
42168;SDS011;27838;43.858;25.974;2022-12-29T03:28:25;22.58;;;13.23;;
42168;SDS011;27838;43.858;25.974;2022-12-29T03:31:01;25.02;;;13.77;;
42168;SDS011;27838;43.858;25.974;2022-12-29T03:33:30;19.25;;;12.25;;
42168;SDS011;27838;43.858;25.974;2022-12-29T03:35:59;21.85;;;11.98;;
42168;SDS011;27838;43.858;25.974;2022-12-29T03:39:14;47.40;;;14.50;;
42168;SDS011;27838;43.858;25.974;2022-12-29T03:41:26;41.95;;;14.15;;
42168;SDS011;27838;43.858;25.974;2022-12-29T03:43:56;26.02;;;13.20;;
42168;SDS011;27838;43.858;25.974;2022-12-29T03:46:23;36.80;;;13.43;;
42168;SDS011;27838;43.858;25.974;2022-12-29T03:48:50;22.20;;;13.95;;
42168;SDS011;27838;43.858;25.974;2022-12-29T03:51:16;27.80;;;14.48;;
42168;SDS011;27838;43.858;25.974;2022-12-29T03:53:43;23.30;;;12.65;;
42168;SDS011;27838;43.858;25.974;2022-12-29T03:56:09;24.40;;;12.95;;
42168;SDS011;27838;43.858;25.974;2022-12-29T03:58:36;27.80;;;13.77;;
42168;SDS011;27838;43.858;25.974;2022-12-29T04:01:02;25.33;;;14.63;;
42168;SDS011;27838;43.858;25.974;2022-12-29T04:03:29;30.02;;;15.13;;
42168;SDS011;27838;43.858;25.974;2022-12-29T04:05:55;26.15;;;14.02;;
42168;SDS011;27838;43.858;25.974;2022-12-29T04:08:22;45.03;;;19.30;;
42168;SDS011;27838;43.858;25.974;2022-12-29T04:10:48;31.42;;;17.10;;
42168;SDS011;27838;43.858;25.974;2022-12-29T04:13:15;29.80;;;16.48;;
42168;SDS011;27838;43.858;25.974;2022-12-29T04:15:45;38.15;;;19.90;;
42168;SDS011;27838;43.858;25.974;2022-12-29T04:18:12;54.28;;;25.38;;
42168;SDS011;27838;43.858;25.974;2022-12-29T04:20:39;38.35;;;21.23;;
42168;SDS011;27838;43.858;25.974;2022-12-29T04:23:23;36.92;;;18.85;;
42168;SDS011;27838;43.858;25.974;2022-12-29T04:25:50;42.83;;;19.67;;
42168;SDS011;27838;43.858;25.974;2022-12-29T04:28:16;35.50;;;17.98;;
42168;SDS011;27838;43.858;25.974;2022-12-29T04:30:43;32.03;;;16.10;;
42168;SDS011;27838;43.858;25.974;2022-12-29T04:33:10;26.80;;;15.57;;
42168;SDS011;27838;43.858;25.974;2022-12-29T04:35:37;31.70;;;16.83;;
42168;SDS011;27838;43.858;25.974;2022-12-29T04:38:04;31.85;;;17.23;;
42168;SDS011;27838;43.858;25.974;2022-12-29T04:40:30;27.17;;;14.35;;
42168;SDS011;27838;43.858;25.974;2022-12-29T04:42:57;31.50;;;15.85;;
42168;SDS011;27838;43.858;25.974;2022-12-29T04:45:24;38.78;;;23.13;;
42168;SDS011;27838;43.858;25.974;2022-12-29T04:47:50;28.00;;;16.02;;
42168;SDS011;27838;43.858;25.974;2022-12-29T04:50:17;45.50;;;22.90;;
42168;SDS011;27838;43.858;25.974;2022-12-29T04:52:43;89.57;;;39.00;;
42168;SDS011;27838;43.858;25.974;2022-12-29T04:55:10;60.38;;;24.92;;
42168;SDS011;27838;43.858;25.974;2022-12-29T04:57:36;37.55;;;20.25;;
42168;SDS011;27838;43.858;25.974;2022-12-29T05:00:03;28.40;;;15.13;;
42168;SDS011;27838;43.858;25.974;2022-12-29T05:02:31;27.15;;;15.50;;
42168;SDS011;27838;43.858;25.974;2022-12-29T05:04:58;32.25;;;16.15;;
42168;SDS011;27838;43.858;25.974;2022-12-29T05:07:24;24.45;;;14.07;;
42168;SDS011;27838;43.858;25.974;2022-12-29T05:09:51;27.38;;;15.23;;
42168;SDS011;27838;43.858;25.974;2022-12-29T05:12:18;25.67;;;14.90;;
42168;SDS011;27838;43.858;25.974;2022-12-29T05:14:44;31.05;;;16.40;;
42168;SDS011;27838;43.858;25.974;2022-12-29T05:17:11;31.33;;;15.70;;
42168;SDS011;27838;43.858;25.974;2022-12-29T05:19:37;36.88;;;21.25;;
42168;SDS011;27838;43.858;25.974;2022-12-29T05:22:04;47.47;;;25.52;;
42168;SDS011;27838;43.858;25.974;2022-12-29T05:24:30;34.47;;;18.52;;
42168;SDS011;27838;43.858;25.974;2022-12-29T05:26:57;37.08;;;17.70;;
42168;SDS011;27838;43.858;25.974;2022-12-29T05:29:23;34.70;;;19.58;;
42168;SDS011;27838;43.858;25.974;2022-12-29T05:31:50;35.13;;;18.85;;
42168;SDS011;27838;43.858;25.974;2022-12-29T05:34:16;43.95;;;20.58;;
42168;SDS011;27838;43.858;25.974;2022-12-29T05:36:43;36.90;;;20.52;;
42168;SDS011;27838;43.858;25.974;2022-12-29T05:39:09;43.03;;;18.23;;
42168;SDS011;27838;43.858;25.974;2022-12-29T05:41:36;34.63;;;18.30;;
42168;SDS011;27838;43.858;25.974;2022-12-29T05:44:02;34.28;;;19.13;;
42168;SDS011;27838;43.858;25.974;2022-12-29T05:46:29;43.05;;;21.33;;
42168;SDS011;27838;43.858;25.974;2022-12-29T05:48:56;44.10;;;25.17;;
42168;SDS011;27838;43.858;25.974;2022-12-29T05:51:22;42.58;;;22.23;;
42168;SDS011;27838;43.858;25.974;2022-12-29T05:53:49;37.65;;;20.30;;
42168;SDS011;27838;43.858;25.974;2022-12-29T05:56:16;37.53;;;20.15;;
42168;SDS011;27838;43.858;25.974;2022-12-29T05:58:42;40.40;;;20.45;;
42168;SDS011;27838;43.858;25.974;2022-12-29T06:01:09;37.65;;;19.52;;
42168;SDS011;27838;43.858;25.974;2022-12-29T06:03:35;33.13;;;19.75;;
42168;SDS011;27838;43.858;25.974;2022-12-29T06:06:02;34.67;;;19.65;;
42168;SDS011;27838;43.858;25.974;2022-12-29T06:08:28;36.10;;;20.05;;
42168;SDS011;27838;43.858;25.974;2022-12-29T06:10:55;32.03;;;19.08;;
42168;SDS011;27838;43.858;25.974;2022-12-29T06:13:21;34.47;;;18.98;;
42168;SDS011;27838;43.858;25.974;2022-12-29T06:15:48;36.75;;;20.60;;
42168;SDS011;27838;43.858;25.974;2022-12-29T06:18:15;41.58;;;20.10;;
42168;SDS011;27838;43.858;25.974;2022-12-29T06:20:42;33.05;;;19.63;;
42168;SDS011;27838;43.858;25.974;2022-12-29T06:23:09;43.35;;;22.45;;
42168;SDS011;27838;43.858;25.974;2022-12-29T06:25:36;60.40;;;28.23;;
42168;SDS011;27838;43.858;25.974;2022-12-29T06:28:03;62.15;;;32.15;;
42168;SDS011;27838;43.858;25.974;2022-12-29T06:30:30;47.83;;;23.85;;
42168;SDS011;27838;43.858;25.974;2022-12-29T06:32:58;41.95;;;23.00;;
42168;SDS011;27838;43.858;25.974;2022-12-29T06:35:25;56.60;;;26.02;;
42168;SDS011;27838;43.858;25.974;2022-12-29T06:37:51;43.25;;;25.63;;
42168;SDS011;27838;43.858;25.974;2022-12-29T06:40:18;48.85;;;24.83;;
42168;SDS011;27838;43.858;25.974;2022-12-29T06:42:45;48.50;;;25.02;;
42168;SDS011;27838;43.858;25.974;2022-12-29T06:45:11;41.33;;;24.73;;
42168;SDS011;27838;43.858;25.974;2022-12-29T06:47:38;46.05;;;24.55;;
42168;SDS011;27838;43.858;25.974;2022-12-29T06:50:04;38.78;;;21.02;;
42168;SDS011;27838;43.858;25.974;2022-12-29T06:52:31;59.42;;;21.23;;
42168;SDS011;27838;43.858;25.974;2022-12-29T06:54:58;56.53;;;22.73;;
42168;SDS011;27838;43.858;25.974;2022-12-29T06:57:24;38.78;;;20.58;;
42168;SDS011;27838;43.858;25.974;2022-12-29T06:59:52;61.90;;;18.80;;
42168;SDS011;27838;43.858;25.974;2022-12-29T07:02:20;39.22;;;17.02;;
42168;SDS011;27838;43.858;25.974;2022-12-29T07:04:47;29.45;;;16.13;;
42168;SDS011;27838;43.858;25.974;2022-12-29T07:07:13;33.95;;;16.90;;
42168;SDS011;27838;43.858;25.974;2022-12-29T07:09:41;41.75;;;18.60;;
42168;SDS011;27838;43.858;25.974;2022-12-29T07:12:07;40.75;;;18.15;;
42168;SDS011;27838;43.858;25.974;2022-12-29T07:14:34;37.33;;;17.17;;
42168;SDS011;27838;43.858;25.974;2022-12-29T07:17:01;30.83;;;14.85;;
42168;SDS011;27838;43.858;25.974;2022-12-29T07:19:30;29.08;;;13.30;;
42168;SDS011;27838;43.858;25.974;2022-12-29T07:21:57;24.52;;;13.02;;
42168;SDS011;27838;43.858;25.974;2022-12-29T07:24:24;23.90;;;12.95;;
42168;SDS011;27838;43.858;25.974;2022-12-29T07:26:51;21.00;;;13.48;;
42168;SDS011;27838;43.858;25.974;2022-12-29T07:29:18;27.58;;;14.23;;
42168;SDS011;27838;43.858;25.974;2022-12-29T07:31:44;24.13;;;14.25;;
42168;SDS011;27838;43.858;25.974;2022-12-29T07:34:11;24.10;;;12.98;;
42168;SDS011;27838;43.858;25.974;2022-12-29T07:36:37;27.90;;;13.63;;
42168;SDS011;27838;43.858;25.974;2022-12-29T07:39:04;29.25;;;13.35;;
42168;SDS011;27838;43.858;25.974;2022-12-29T07:41:31;18.08;;;11.02;;
42168;SDS011;27838;43.858;25.974;2022-12-29T07:43:57;20.50;;;11.70;;
42168;SDS011;27838;43.858;25.974;2022-12-29T07:46:24;18.17;;;11.15;;
42168;SDS011;27838;43.858;25.974;2022-12-29T07:48:50;15.98;;;10.98;;
42168;SDS011;27838;43.858;25.974;2022-12-29T07:51:17;24.08;;;11.88;;
42168;SDS011;27838;43.858;25.974;2022-12-29T07:53:44;23.35;;;12.10;;
42168;SDS011;27838;43.858;25.974;2022-12-29T07:56:10;20.55;;;11.45;;
42168;SDS011;27838;43.858;25.974;2022-12-29T07:58:37;32.78;;;14.02;;
42168;SDS011;27838;43.858;25.974;2022-12-29T08:01:04;16.55;;;10.98;;
42168;SDS011;27838;43.858;25.974;2022-12-29T08:03:30;21.65;;;11.80;;
42168;SDS011;27838;43.858;25.974;2022-12-29T08:05:57;21.13;;;11.73;;
42168;SDS011;27838;43.858;25.974;2022-12-29T08:08:24;16.15;;;9.35;;
42168;SDS011;27838;43.858;25.974;2022-12-29T08:10:50;17.80;;;10.70;;
42168;SDS011;27838;43.858;25.974;2022-12-29T08:13:17;17.92;;;10.52;;
42168;SDS011;27838;43.858;25.974;2022-12-29T08:15:43;18.60;;;11.88;;
42168;SDS011;27838;43.858;25.974;2022-12-29T08:18:10;17.17;;;10.35;;
42168;SDS011;27838;43.858;25.974;2022-12-29T08:20:36;20.88;;;12.13;;
42168;SDS011;27838;43.858;25.974;2022-12-29T08:23:03;26.67;;;11.60;;
42168;SDS011;27838;43.858;25.974;2022-12-29T08:25:29;21.67;;;11.70;;
42168;SDS011;27838;43.858;25.974;2022-12-29T08:27:56;21.20;;;12.70;;
42168;SDS011;27838;43.858;25.974;2022-12-29T08:30:22;22.80;;;15.02;;
42168;SDS011;27838;43.858;25.974;2022-12-29T08:32:49;20.45;;;11.80;;
42168;SDS011;27838;43.858;25.974;2022-12-29T08:35:16;24.02;;;13.18;;
42168;SDS011;27838;43.858;25.974;2022-12-29T08:37:42;15.98;;;11.10;;
42168;SDS011;27838;43.858;25.974;2022-12-29T08:40:09;20.98;;;11.93;;
42168;SDS011;27838;43.858;25.974;2022-12-29T08:42:35;18.95;;;12.13;;
42168;SDS011;27838;43.858;25.974;2022-12-29T08:45:02;21.92;;;12.25;;
42168;SDS011;27838;43.858;25.974;2022-12-29T08:47:29;19.92;;;12.02;;
42168;SDS011;27838;43.858;25.974;2022-12-29T08:49:55;18.60;;;11.95;;
42168;SDS011;27838;43.858;25.974;2022-12-29T08:52:22;23.63;;;13.40;;
42168;SDS011;27838;43.858;25.974;2022-12-29T08:54:48;24.08;;;13.07;;
42168;SDS011;27838;43.858;25.974;2022-12-29T08:57:15;17.75;;;12.40;;
42168;SDS011;27838;43.858;25.974;2022-12-29T08:59:41;23.33;;;13.20;;
42168;SDS011;27838;43.858;25.974;2022-12-29T09:02:11;24.15;;;13.35;;
42168;SDS011;27838;43.858;25.974;2022-12-29T09:04:39;20.38;;;12.75;;
42168;SDS011;27838;43.858;25.974;2022-12-29T09:07:05;20.88;;;12.52;;
42168;SDS011;27838;43.858;25.974;2022-12-29T09:09:32;28.90;;;14.00;;
42168;SDS011;27838;43.858;25.974;2022-12-29T09:11:59;27.08;;;15.65;;
42168;SDS011;27838;43.858;25.974;2022-12-29T09:14:25;22.85;;;13.13;;
42168;SDS011;27838;43.858;25.974;2022-12-29T09:16:52;24.88;;;15.00;;
42168;SDS011;27838;43.858;25.974;2022-12-29T09:19:37;25.45;;;14.80;;
42168;SDS011;27838;43.858;25.974;2022-12-29T09:22:03;23.05;;;13.23;;
42168;SDS011;27838;43.858;25.974;2022-12-29T09:24:30;28.77;;;15.30;;
42168;SDS011;27838;43.858;25.974;2022-12-29T09:26:57;30.08;;;17.25;;
42168;SDS011;27838;43.858;25.974;2022-12-29T09:29:23;29.35;;;14.48;;
42168;SDS011;27838;43.858;25.974;2022-12-29T09:31:50;26.92;;;13.55;;
42168;SDS011;27838;43.858;25.974;2022-12-29T09:34:17;30.52;;;15.60;;
42168;SDS011;27838;43.858;25.974;2022-12-29T09:36:43;31.15;;;15.20;;
42168;SDS011;27838;43.858;25.974;2022-12-29T09:39:10;32.22;;;17.73;;
42168;SDS011;27838;43.858;25.974;2022-12-29T09:41:42;29.08;;;17.15;;
42168;SDS011;27838;43.858;25.974;2022-12-29T09:46:48;33.28;;;20.05;;
42168;SDS011;27838;43.858;25.974;2022-12-29T09:49:20;28.25;;;18.05;;
42168;SDS011;27838;43.858;25.974;2022-12-29T09:52:12;26.00;;;16.88;;
42168;SDS011;27838;43.858;25.974;2022-12-29T09:57:17;29.00;;;15.32;;
42168;SDS011;27838;43.858;25.974;2022-12-29T09:59:52;24.92;;;15.25;;
42168;SDS011;27838;43.858;25.974;2022-12-29T10:02:32;27.33;;;15.38;;
42168;SDS011;27838;43.858;25.974;2022-12-29T10:05:13;26.83;;;16.08;;
42168;SDS011;27838;43.858;25.974;2022-12-29T10:07:55;28.58;;;14.60;;
42168;SDS011;27838;43.858;25.974;2022-12-29T10:10:38;25.67;;;14.68;;
42168;SDS011;27838;43.858;25.974;2022-12-29T10:17:21;31.33;;;16.25;;
42168;SDS011;27838;43.858;25.974;2022-12-29T10:25:18;30.50;;;13.15;;
42168;SDS011;27838;43.858;25.974;2022-12-29T10:27:47;22.63;;;12.27;;
42168;SDS011;27838;43.858;25.974;2022-12-29T10:30:15;25.38;;;13.15;;
42168;SDS011;27838;43.858;25.974;2022-12-29T10:33:17;21.73;;;13.10;;
42168;SDS011;27838;43.858;25.974;2022-12-29T10:35:38;20.30;;;12.82;;
42168;SDS011;27838;43.858;25.974;2022-12-29T10:38:13;17.45;;;11.88;;
42168;SDS011;27838;43.858;25.974;2022-12-29T10:40:50;22.48;;;11.65;;
42168;SDS011;27838;43.858;25.974;2022-12-29T10:43:37;20.40;;;11.68;;
42168;SDS011;27838;43.858;25.974;2022-12-29T10:46:18;40.47;;;14.18;;
42168;SDS011;27838;43.858;25.974;2022-12-29T10:48:50;23.90;;;13.65;;
42168;SDS011;27838;43.858;25.974;2022-12-29T10:51:20;18.98;;;11.90;;
42168;SDS011;27838;43.858;25.974;2022-12-29T10:53:51;27.23;;;12.75;;
42168;SDS011;27838;43.858;25.974;2022-12-29T10:56:31;25.30;;;12.90;;
42168;SDS011;27838;43.858;25.974;2022-12-29T11:07:14;23.70;;;12.30;;
42168;SDS011;27838;43.858;25.974;2022-12-29T11:09:44;18.55;;;12.32;;
42168;SDS011;27838;43.858;25.974;2022-12-29T11:12:28;20.33;;;13.35;;
42168;SDS011;27838;43.858;25.974;2022-12-29T11:17:42;26.52;;;13.82;;
42168;SDS011;27838;43.858;25.974;2022-12-29T11:20:31;29.55;;;13.98;;
42168;SDS011;27838;43.858;25.974;2022-12-29T11:23:02;21.45;;;13.18;;
42168;SDS011;27838;43.858;25.974;2022-12-29T11:25:31;33.17;;;15.70;;
42168;SDS011;27838;43.858;25.974;2022-12-29T11:28:13;25.08;;;13.85;;
42168;SDS011;27838;43.858;25.974;2022-12-29T11:30:42;38.90;;;15.85;;
42168;SDS011;27838;43.858;25.974;2022-12-29T11:33:09;25.13;;;14.55;;
42168;SDS011;27838;43.858;25.974;2022-12-29T11:35:38;29.27;;;15.23;;
42168;SDS011;27838;43.858;25.974;2022-12-29T11:38:17;34.78;;;17.00;;
42168;SDS011;27838;43.858;25.974;2022-12-29T11:40:51;24.65;;;15.80;;
42168;SDS011;27838;43.858;25.974;2022-12-29T11:43:23;26.33;;;15.52;;
42168;SDS011;27838;43.858;25.974;2022-12-29T11:45:54;29.33;;;16.88;;
42168;SDS011;27838;43.858;25.974;2022-12-29T11:48:21;29.92;;;18.23;;
42168;SDS011;27838;43.858;25.974;2022-12-29T11:50:53;26.08;;;17.10;;
42168;SDS011;27838;43.858;25.974;2022-12-29T11:53:22;28.55;;;16.83;;
42168;SDS011;27838;43.858;25.974;2022-12-29T11:56:10;34.92;;;16.83;;
42168;SDS011;27838;43.858;25.974;2022-12-29T11:58:43;29.95;;;16.38;;
42168;SDS011;27838;43.858;25.974;2022-12-29T12:06:34;29.77;;;15.63;;
42168;SDS011;27838;43.858;25.974;2022-12-29T12:09:14;29.40;;;20.02;;
42168;SDS011;27838;43.858;25.974;2022-12-29T12:11:47;29.80;;;14.70;;
42168;SDS011;27838;43.858;25.974;2022-12-29T12:14:38;22.15;;;13.73;;
42168;SDS011;27838;43.858;25.974;2022-12-29T12:17:16;32.72;;;14.48;;
42168;SDS011;27838;43.858;25.974;2022-12-29T12:25:11;25.63;;;15.10;;
42168;SDS011;27838;43.858;25.974;2022-12-29T12:30:41;18.80;;;12.68;;
42168;SDS011;27838;43.858;25.974;2022-12-29T12:33:18;29.02;;;14.00;;
42168;SDS011;27838;43.858;25.974;2022-12-29T12:35:57;21.70;;;13.93;;
42168;SDS011;27838;43.858;25.974;2022-12-29T12:44:17;33.03;;;13.57;;
42168;SDS011;27838;43.858;25.974;2022-12-29T13:12:27;31.45;;;11.88;;
42168;SDS011;27838;43.858;25.974;2022-12-29T13:31:44;24.98;;;12.35;;
42168;SDS011;27838;43.858;25.974;2022-12-29T13:36:53;25.55;;;11.90;;
42168;SDS011;27838;43.858;25.974;2022-12-29T13:39:23;49.80;;;22.30;;
42168;SDS011;27838;43.858;25.974;2022-12-29T13:41:55;35.67;;;12.20;;
42168;SDS011;27838;43.858;25.974;2022-12-29T13:44:31;38.92;;;14.68;;
42168;SDS011;27838;43.858;25.974;2022-12-29T13:47:12;31.70;;;12.68;;
42168;SDS011;27838;43.858;25.974;2022-12-29T13:49:47;23.25;;;10.95;;
42168;SDS011;27838;43.858;25.974;2022-12-29T13:55:40;22.55;;;11.80;;
42168;SDS011;27838;43.858;25.974;2022-12-29T14:04:10;31.40;;;12.57;;
42168;SDS011;27838;43.858;25.974;2022-12-29T14:06:40;21.20;;;11.15;;
42168;SDS011;27838;43.858;25.974;2022-12-29T14:12:18;28.10;;;12.05;;
42168;SDS011;27838;43.858;25.974;2022-12-29T14:15:05;21.02;;;12.07;;
42168;SDS011;27838;43.858;25.974;2022-12-29T14:17:41;29.55;;;10.63;;
42168;SDS011;27838;43.858;25.974;2022-12-29T14:20:18;32.92;;;10.88;;
42168;SDS011;27838;43.858;25.974;2022-12-29T14:28:30;43.45;;;12.18;;
42168;SDS011;27838;43.858;25.974;2022-12-29T14:31:01;36.40;;;11.25;;
42168;SDS011;27838;43.858;25.974;2022-12-29T14:33:30;36.58;;;11.65;;
42168;SDS011;27838;43.858;25.974;2022-12-29T14:38:59;31.08;;;11.43;;
42168;SDS011;27838;43.858;25.974;2022-12-29T14:41:30;40.47;;;11.43;;
42168;SDS011;27838;43.858;25.974;2022-12-29T14:49:19;21.30;;;10.32;;
42168;SDS011;27838;43.858;25.974;2022-12-29T14:51:49;30.00;;;11.27;;
42168;SDS011;27838;43.858;25.974;2022-12-29T14:54:41;38.05;;;11.88;;
42168;SDS011;27838;43.858;25.974;2022-12-29T14:57:24;23.98;;;10.85;;
42168;SDS011;27838;43.858;25.974;2022-12-29T14:59:55;33.90;;;10.88;;
42168;SDS011;27838;43.858;25.974;2022-12-29T15:02:30;25.55;;;10.20;;
42168;SDS011;27838;43.858;25.974;2022-12-29T15:05:03;20.33;;;10.60;;
42168;SDS011;27838;43.858;25.974;2022-12-29T15:07:32;27.73;;;11.40;;
42168;SDS011;27838;43.858;25.974;2022-12-29T15:10:11;26.80;;;13.90;;
42168;SDS011;27838;43.858;25.974;2022-12-29T15:12:41;117.82;;;22.65;;
42168;SDS011;27838;43.858;25.974;2022-12-29T15:15:24;128.93;;;21.42;;
42168;SDS011;27838;43.858;25.974;2022-12-29T15:17:52;89.78;;;19.42;;
42168;SDS011;27838;43.858;25.974;2022-12-29T15:23:30;102.72;;;21.92;;
42168;SDS011;27838;43.858;25.974;2022-12-29T15:25:59;99.80;;;22.35;;
42168;SDS011;27838;43.858;25.974;2022-12-29T15:28:42;120.25;;;23.45;;
42168;SDS011;27838;43.858;25.974;2022-12-29T15:31:11;112.72;;;22.15;;
42168;SDS011;27838;43.858;25.974;2022-12-29T15:33:41;85.05;;;21.08;;
42168;SDS011;27838;43.858;25.974;2022-12-29T15:36:28;104.25;;;22.67;;
42168;SDS011;27838;43.858;25.974;2022-12-29T15:39:17;107.43;;;22.70;;
42168;SDS011;27838;43.858;25.974;2022-12-29T15:41:56;117.35;;;22.90;;
42168;SDS011;27838;43.858;25.974;2022-12-29T15:44:43;87.50;;;23.40;;
42168;SDS011;27838;43.858;25.974;2022-12-29T15:47:32;135.68;;;23.60;;
42168;SDS011;27838;43.858;25.974;2022-12-29T15:50:05;84.03;;;22.60;;
42168;SDS011;27838;43.858;25.974;2022-12-29T15:52:40;79.40;;;24.02;;
42168;SDS011;27838;43.858;25.974;2022-12-29T15:55:09;72.50;;;23.77;;
42168;SDS011;27838;43.858;25.974;2022-12-29T15:57:46;47.50;;;21.48;;
42168;SDS011;27838;43.858;25.974;2022-12-29T16:00:23;65.40;;;24.08;;
42168;SDS011;27838;43.858;25.974;2022-12-29T16:02:52;48.67;;;22.20;;
42168;SDS011;27838;43.858;25.974;2022-12-29T16:05:20;70.75;;;26.35;;
42168;SDS011;27838;43.858;25.974;2022-12-29T16:07:56;50.45;;;24.50;;
42168;SDS011;27838;43.858;25.974;2022-12-29T16:13:05;57.78;;;23.55;;
42168;SDS011;27838;43.858;25.974;2022-12-29T16:15:45;53.38;;;26.08;;
42168;SDS011;27838;43.858;25.974;2022-12-29T16:18:20;53.50;;;28.40;;
42168;SDS011;27838;43.858;25.974;2022-12-29T16:20:51;84.35;;;37.15;;
42168;SDS011;27838;43.858;25.974;2022-12-29T16:23:20;91.70;;;44.22;;
42168;SDS011;27838;43.858;25.974;2022-12-29T16:25:51;103.90;;;44.60;;
42168;SDS011;27838;43.858;25.974;2022-12-29T16:29:04;104.38;;;47.92;;
42168;SDS011;27838;43.858;25.974;2022-12-29T16:31:18;95.65;;;41.67;;
42168;SDS011;27838;43.858;25.974;2022-12-29T16:33:50;113.72;;;44.10;;
42168;SDS011;27838;43.858;25.974;2022-12-29T16:39:17;83.88;;;44.67;;
42168;SDS011;27838;43.858;25.974;2022-12-29T16:41:47;97.00;;;46.55;;
42168;SDS011;27838;43.858;25.974;2022-12-29T16:47:11;96.45;;;48.30;;
42168;SDS011;27838;43.858;25.974;2022-12-29T16:49:49;89.75;;;46.60;;
42168;SDS011;27838;43.858;25.974;2022-12-29T16:52:20;83.15;;;45.25;;
42168;SDS011;27838;43.858;25.974;2022-12-29T16:54:56;88.38;;;44.97;;
42168;SDS011;27838;43.858;25.974;2022-12-29T16:57:33;95.68;;;46.10;;
42168;SDS011;27838;43.858;25.974;2022-12-29T17:00:04;76.35;;;42.90;;
42168;SDS011;27838;43.858;25.974;2022-12-29T17:02:32;78.07;;;41.67;;
42168;SDS011;27838;43.858;25.974;2022-12-29T17:05:16;98.25;;;49.63;;
42168;SDS011;27838;43.858;25.974;2022-12-29T17:07:44;89.60;;;48.47;;
42168;SDS011;27838;43.858;25.974;2022-12-29T17:10:11;110.90;;;51.97;;
42168;SDS011;27838;43.858;25.974;2022-12-29T17:12:39;97.13;;;51.15;;